Time;durP1;ratioP1;P1;durP2;ratioP2;P2;SDS_P1;SDS_P2;PMS_P1;PMS_P2;Temp;Humidity;BMP_temperature;BMP_pressure;BME280_temperature;BME280_humidity;BME280_pressure;Samples;Min_cycle;Max_cycle;Signal;HPM_P1;HPM_P2
2022/04/28 00:01:40;;;;;;;8.10;4.90;;;;;;;8.50;72.78;99395.78;5053476;28;20091;-50
2022/04/28 00:04:25;;;;;;;9.95;5.30;;;;;;;8.48;70.73;99398.47;5037831;28;20136;-51
2022/04/28 00:07:10;;;;;;;11.38;5.68;;;;;;;8.43;70.60;99391.75;5037945;28;20435;-50
2022/04/28 00:09:54;;;;;;;10.20;5.30;;;;;;;8.41;72.47;99399.66;5053193;28;20037;-54
2022/04/28 00:12:39;;;;;;;7.68;4.32;;;;;;;8.67;75.91;99405.38;5052909;28;20041;-52
2022/04/28 00:15:24;;;;;;;12.27;5.45;;;;;;;8.73;69.98;99407.69;5052018;28;20083;-52
2022/04/28 00:18:09;;;;;;;9.82;5.35;;;;;;;8.36;70.80;99404.25;5051928;28;20032;-52
2022/04/28 00:20:54;;;;;;;8.68;4.97;;;;;;;8.35;71.95;99402.59;5051874;28;20067;-52
2022/04/28 00:23:39;;;;;;;7.07;4.15;;;;;;;8.45;72.64;99414.28;5053148;28;20045;-52
2022/04/28 00:26:24;;;;;;;8.90;4.85;;;;;;;8.34;72.25;99408.75;5052717;28;20480;-56
2022/04/28 00:29:08;;;;;;;9.38;5.03;;;;;;;8.28;73.86;99411.63;5038028;28;20047;-50
2022/04/28 00:31:53;;;;;;;8.43;5.68;;;;;;;8.09;71.79;99402.94;5051757;28;20468;-52
2022/04/28 00:34:38;;;;;;;7.93;4.50;;;;;;;8.14;72.14;99403.53;5052445;28;20040;-54
2022/04/28 00:37:24;;;;;;;10.10;4.95;;;;;;;7.95;72.06;99403.59;5037381;28;20049;-54
2022/04/28 00:40:09;;;;;;;10.02;5.18;;;;;;;8.09;71.57;99397.72;5051517;28;20041;-54
2022/04/28 00:43:18;;;;;;;8.30;5.22;;;;;;;7.91;71.84;99396.84;5051811;28;20041;-52
2022/04/28 00:45:59;;;;;;;7.80;4.80;;;;;;;7.90;71.97;99389.91;5051369;28;20445;-54
2022/04/28 00:51:47;;;;;;;9.90;4.97;;;;;;;7.95;71.50;99387.94;5051365;28;20048;-56
2022/04/28 00:54:33;;;;;;;9.73;4.95;;;;;;;7.92;72.99;99395.91;5051206;28;20037;-56
2022/04/28 00:57:19;;;;;;;7.53;4.38;;;;;;;7.89;73.36;99390.84;5051373;28;20049;-54
2022/04/28 01:00:04;;;;;;;8.55;4.70;;;;;;;7.94;71.43;99390.63;5051528;28;20040;-56
2022/04/28 01:02:49;;;;;;;7.55;4.55;;;;;;;7.84;71.01;99400.63;5058557;28;20083;-56
2022/04/28 01:05:34;;;;;;;7.53;4.40;;;;;;;7.72;71.59;99396.88;5056258;28;20123;-56
2022/04/28 01:08:19;;;;;;;7.32;4.43;;;;;;;7.94;71.40;99395.84;5036949;28;20049;-55
2022/04/28 01:11:07;;;;;;;7.55;4.72;;;;;;;7.86;73.69;99398.81;5036977;28;20067;-54
2022/04/28 01:14:01;;;;;;;7.63;4.28;;;;;;;7.98;71.03;99400.00;5050603;28;20045;-56
2022/04/28 01:16:50;;;;;;;8.93;4.50;;;;;;;7.91;72.41;99396.84;5050934;28;20110;-56
2022/04/28 01:19:35;;;;;;;8.95;5.03;;;;;;;7.72;71.08;99402.06;5050262;28;20479;-55
2022/04/28 01:22:21;;;;;;;8.63;4.68;;;;;;;7.70;71.24;99391.72;5050655;28;20037;-56
2022/04/28 01:25:08;;;;;;;8.38;4.22;;;;;;;7.88;75.21;99396.97;5050381;28;20052;-56
2022/04/28 01:27:53;;;;;;;7.40;4.15;;;;;;;7.80;70.21;99393.88;5079144;28;20049;-56
2022/04/28 01:30:38;;;;;;;8.18;4.60;;;;;;;7.72;70.37;99394.25;5053661;28;20033;-55
2022/04/28 01:33:24;;;;;;;9.35;4.43;;;;;;;7.63;70.05;99390.28;5058948;28;20041;-55
2022/04/28 01:36:09;;;;;;;6.72;4.35;;;;;;;7.63;69.74;99392.91;5050310;28;20045;-55
2022/04/28 01:38:55;;;;;;;8.88;4.30;;;;;;;7.76;71.14;99399.25;5050369;28;20041;-56
2022/04/28 01:41:40;;;;;;;10.10;4.05;;;;;;;7.80;69.28;99396.50;5051590;28;20044;-54
2022/04/28 01:44:25;;;;;;;8.73;4.85;;;;;;;7.61;70.18;99395.59;5037275;28;20037;-57
2022/04/28 01:47:09;;;;;;;9.10;4.60;;;;;;;7.48;70.07;99392.69;5040659;28;20078;-56
2022/04/28 01:50:13;;;;;;;8.82;4.80;;;;;;;7.54;70.73;99388.13;5055204;28;20113;-56
2022/04/28 01:56:42;;;;;;;8.13;5.10;;;;;;;7.50;70.26;99393.47;5055267;28;20419;-57
2022/04/28 01:59:51;;;;;;;10.40;4.93;;;;;;;7.64;68.95;99381.53;5082896;28;20068;-54
2022/04/28 02:03:05;;;;;;;7.10;4.40;;;;;;;7.49;69.97;99391.78;5054796;28;20052;-55
2022/04/28 02:05:51;;;;;;;9.88;5.45;;;;;;;7.49;69.45;99385.72;5054074;28;20476;-56
2022/04/28 02:08:35;;;;;;;8.10;4.70;;;;;;;7.41;69.42;99382.63;5054075;28;20045;-56
2022/04/28 02:11:21;;;;;;;8.90;4.97;;;;;;;7.29;70.09;99390.09;5040357;28;20463;-54
2022/04/28 02:14:26;;;;;;;9.63;4.68;;;;;;;7.41;70.18;99383.44;5027831;28;20060;-55
2022/04/28 02:17:40;;;;;;;6.32;4.05;;;;;;;7.32;69.41;99397.75;5040130;28;20041;-56
2022/04/28 02:20:26;;;;;;;8.90;4.55;;;;;;;7.31;71.69;99392.63;5054444;28;20095;-54
2022/04/28 02:23:12;;;;;;;7.55;4.78;;;;;;;7.18;70.50;99387.94;5081870;28;20441;-54
2022/04/28 02:25:58;;;;;;;7.90;4.80;;;;;;;7.24;72.21;99392.91;5040074;28;20037;-57
2022/04/28 02:28:43;;;;;;;8.98;4.85;;;;;;;7.18;71.47;99379.28;5026134;28;20369;-58
2022/04/28 02:31:27;;;;;;;6.90;4.45;;;;;;;7.14;70.53;99389.00;5040387;28;20052;-57
2022/04/28 02:34:13;;;;;;;7.07;4.38;;;;;;;7.26;73.59;99391.06;5054443;28;20048;-57
2022/04/28 02:37:02;;;;;;;10.02;5.13;;;;;;;7.28;70.46;99388.38;5013725;28;20053;-59
2022/04/28 02:39:48;;;;;;;10.13;4.95;;;;;;;7.17;70.48;99382.78;5053844;28;20037;-55
2022/04/28 02:42:34;;;;;;;11.40;5.22;;;;;;;7.04;70.77;99393.78;5054083;28;20102;-58
2022/04/28 02:45:19;;;;;;;9.93;4.80;;;;;;;7.02;71.20;99391.25;5053598;28;20041;-55
2022/04/28 02:48:10;;;;;;;8.77;5.35;;;;;;;7.08;70.97;99389.28;5051091;28;20045;-55
2022/04/28 02:50:55;;;;;;;8.73;5.00;;;;;;;7.33;72.87;99396.00;5037065;28;20037;-58
2022/04/28 02:53:39;;;;;;;9.68;5.13;;;;;;;7.21;71.85;99397.41;5047661;28;20447;-55
2022/04/28 02:56:25;;;;;;;8.40;4.57;;;;;;;6.97;71.24;99398.41;5047525;28;20037;-55
2022/04/28 02:59:10;;;;;;;8.35;4.80;;;;;;;7.01;72.99;99401.72;5047101;28;20052;-56
2022/04/28 03:01:55;;;;;;;8.15;4.60;;;;;;;6.95;73.08;99400.25;5060593;28;20484;-55
2022/04/28 03:04:39;;;;;;;7.95;5.25;;;;;;;6.78;72.41;99395.75;5030830;28;20155;-55
2022/04/28 03:13:32;;;;;;;9.20;5.07;;;;;;;6.40;73.67;99405.09;5053747;28;20037;-55
2022/04/28 03:16:18;;;;;;;7.40;4.25;;;;;;;6.60;74.43;99408.63;5053759;28;20418;-57
2022/04/28 03:19:11;;;;;;;8.20;4.72;;;;;;;6.64;73.81;99397.16;5041225;28;20032;-54
2022/04/28 03:21:56;;;;;;;9.27;5.55;;;;;;;6.88;72.44;99402.28;5079510;28;20115;-58
2022/04/28 03:24:41;;;;;;;9.35;5.00;;;;;;;6.64;73.97;99410.19;5039334;28;20067;-55
2022/04/28 03:27:28;;;;;;;10.70;5.10;;;;;;;6.77;74.50;99402.72;5068580;28;20476;-55
2022/04/28 03:30:12;;;;;;;10.55;5.45;;;;;;;6.55;72.54;99405.38;5068661;28;20423;-53
2022/04/28 03:33:23;;;;;;;8.65;4.43;;;;;;;6.64;73.69;99418.00;5053621;28;20044;-53
2022/04/28 03:39:11;;;;;;;7.25;4.55;;;;;;;6.52;73.34;99416.78;5066623;28;20133;-55
2022/04/28 03:41:57;;;;;;;7.60;4.80;;;;;;;6.52;72.43;99405.50;5053565;28;20398;-55
2022/04/28 03:44:42;;;;;;;9.45;5.60;;;;;;;6.46;72.81;99416.19;5053069;28;20497;-55
2022/04/28 03:47:36;;;;;;;11.05;5.57;;;;;;;6.61;73.26;99417.31;5052984;28;20036;-54
2022/04/28 03:50:21;;;;;;;10.07;5.28;;;;;;;6.71;73.47;99417.78;5038371;28;20052;-55
2022/04/28 03:53:07;;;;;;;8.50;5.50;;;;;;;6.65;72.22;99424.06;5052445;28;20056;-52
2022/04/28 03:55:54;;;;;;;9.77;4.90;;;;;;;6.64;72.31;99415.41;5037633;28;20056;-55
2022/04/28 03:58:39;;;;;;;8.38;5.22;;;;;;;6.67;71.63;99429.22;5066442;28;20044;-54
2022/04/28 04:01:24;;;;;;;11.15;5.93;;;;;;;6.62;72.44;99434.63;5052085;28;20041;-52
2022/04/28 04:04:24;;;;;;;10.40;5.60;;;;;;;6.71;71.84;99433.41;5040545;28;20041;-54
2022/04/28 04:07:31;;;;;;;8.15;5.20;;;;;;;6.66;71.80;99430.97;5055847;28;20041;-54
2022/04/28 04:10:35;;;;;;;10.55;5.45;;;;;;;6.67;72.34;99435.28;5055192;28;20041;-53
2022/04/28 04:13:23;;;;;;;10.50;4.78;;;;;;;6.65;72.30;99445.75;5036897;28;20472;-58
2022/04/28 04:16:12;;;;;;;13.15;5.40;;;;;;;6.70;72.24;99442.97;5022468;28;20138;-58
2022/04/28 04:19:21;;;;;;;9.77;5.55;;;;;;;6.73;74.14;99455.00;5053466;28;20041;-57
2022/04/28 04:22:11;;;;;;;10.32;5.15;;;;;;;6.80;72.46;99456.44;5050101;28;20057;-57
2022/04/28 04:24:57;;;;;;;8.45;5.38;;;;;;;6.84;71.96;99454.56;5055021;28;20483;-57
2022/04/28 04:27:41;;;;;;;8.90;5.57;;;;;;;6.85;73.14;99454.50;5066672;28;20044;-57
2022/04/28 04:34:08;;;;;;;9.32;5.72;;;;;;;6.83;71.72;99461.53;5056473;28;20069;-57
2022/04/28 04:36:53;;;;;;;9.18;5.18;;;;;;;6.76;72.22;99460.94;5051875;28;20060;-57
2022/04/28 04:39:43;;;;;;;10.75;5.75;;;;;;;6.77;72.27;99459.19;5051503;28;20040;-56
2022/04/28 04:42:28;;;;;;;9.00;5.20;;;;;;;6.64;72.05;99461.44;5051346;28;20041;-57
2022/04/28 04:45:13;;;;;;;9.18;5.30;;;;;;;6.94;72.22;99462.81;5037377;28;20060;-58
2022/04/28 04:48:25;;;;;;;8.60;5.38;;;;;;;6.98;71.19;99467.84;5031921;28;20073;-57
2022/04/28 04:51:11;;;;;;;11.32;5.80;;;;;;;7.03;71.34;99463.25;5040892;28;20041;-56
2022/04/28 04:54:16;;;;;;;9.50;4.95;;;;;;;7.20;72.02;99468.66;5037615;28;20045;-57
2022/04/28 04:57:01;;;;;;;9.35;5.32;;;;;;;7.18;71.05;99467.91;5050895;28;20045;-54
2022/04/28 04:59:45;;;;;;;8.38;5.30;;;;;;;7.19;71.72;99480.88;5051298;28;20044;-57
2022/04/28 05:02:30;;;;;;;8.85;4.78;;;;;;;7.48;72.42;99478.75;5050409;28;20049;-57
2022/04/28 05:05:33;;;;;;;10.93;4.80;;;;;;;7.30;70.27;99483.00;5053581;28;20099;-58
2022/04/28 05:08:47;;;;;;;8.82;4.78;;;;;;;7.65;74.43;99492.78;5022540;28;20052;-57
2022/04/28 05:11:32;;;;;;;9.60;5.47;;;;;;;7.60;68.98;99493.00;5032895;28;20440;-57
2022/04/28 05:14:27;;;;;;;9.25;5.30;;;;;;;7.74;71.12;99499.34;5030612;28;20088;-56
2022/04/28 05:17:12;;;;;;;11.15;4.68;;;;;;;7.76;72.66;99498.38;5030764;28;20052;-56
2022/04/28 05:20:19;;;;;;;9.60;4.82;;;;;;;7.83;68.09;99506.78;5040304;28;20065;-55
2022/04/28 05:23:22;;;;;;;11.43;5.45;;;;;;;7.72;69.68;99509.84;5031646;28;20038;-55
2022/04/28 05:26:26;;;;;;;9.18;5.13;;;;;;;7.93;67.95;99516.78;5031444;28;20041;-57
2022/04/28 05:29:16;;;;;;;11.50;6.00;;;;;;;7.94;68.58;99515.84;5029809;28;20443;-56
2022/04/28 05:32:26;;;;;;;11.02;5.68;;;;;;;7.99;69.17;99514.75;5030682;28;20499;-56
2022/04/28 05:35:15;;;;;;;10.20;5.53;;;;;;;8.45;69.77;99512.66;5043876;28;20038;-55
2022/04/28 05:38:01;;;;;;;11.43;6.00;;;;;;;8.62;66.73;99517.94;5030811;28;20365;-57
2022/04/28 05:40:45;;;;;;;10.75;5.50;;;;;;;8.78;64.45;99519.78;5037283;28;20053;-56
2022/04/28 05:46:37;;;;;;;11.98;6.38;;;;;;;10.60;68.18;99521.72;5050296;28;20124;-55
2022/04/28 05:49:22;;;;;;;11.15;5.97;;;;;;;9.53;61.59;99529.13;5036257;28;20483;-56
2022/04/28 05:52:07;;;;;;;8.25;5.18;;;;;;;9.00;62.99;99531.81;5050001;28;20033;-56
2022/04/28 05:54:53;;;;;;;10.05;6.30;;;;;;;9.09;63.40;99531.34;5064810;28;20036;-56
2022/04/28 05:57:38;;;;;;;13.88;6.45;;;;;;;9.06;62.57;99528.88;5050593;28;20052;-57
2022/04/28 06:00:23;;;;;;;9.60;5.13;;;;;;;9.55;65.03;99535.13;5050312;28;20060;-57
2022/04/28 06:03:09;;;;;;;9.68;5.68;;;;;;;9.52;61.09;99529.22;5064567;28;20551;-56
2022/04/28 06:06:02;;;;;;;10.63;6.70;;;;;;;9.60;61.08;99527.06;5050424;28;20101;-56
2022/04/28 06:08:48;;;;;;;10.93;5.65;;;;;;;10.46;61.86;99527.72;5064947;28;20052;-55
2022/04/28 06:11:33;;;;;;;10.02;5.45;;;;;;;9.98;59.67;99537.28;5055007;28;20041;-57
2022/04/28 06:14:18;;;;;;;10.25;5.90;;;;;;;10.19;58.51;99538.78;5049507;28;20517;-58
2022/04/28 06:17:32;;;;;;;12.80;6.10;;;;;;;10.23;58.23;99541.16;5047902;28;20052;-57
2022/04/28 06:20:16;;;;;;;9.80;5.45;;;;;;;10.53;57.61;99542.19;5064164;28;20052;-58
2022/04/28 06:23:27;;;;;;;13.07;5.70;;;;;;;11.95;72.81;99533.94;5039724;28;20463;-58
2022/04/28 06:26:13;;;;;;;9.52;5.10;;;;;;;12.62;66.82;99534.19;5043958;28;20037;-58
2022/04/28 06:28:58;;;;;;;10.20;5.68;;;;;;;12.12;58.69;99544.38;5051733;28;20359;-58
2022/04/28 06:31:43;;;;;;;11.40;5.75;;;;;;;12.37;60.82;99540.19;5053056;28;20037;-61
2022/04/28 06:34:48;;;;;;;9.93;4.95;;;;;;;12.37;60.83;99532.31;5034697;28;20107;-60
2022/04/28 06:37:34;;;;;;;8.40;4.43;;;;;;;13.11;56.70;99534.53;5052571;28;20120;-59
2022/04/28 06:40:21;;;;;;;10.00;5.47;;;;;;;12.77;55.41;99548.13;5053033;28;20076;-58
2022/04/28 06:43:08;;;;;;;14.85;4.55;;;;;;;13.18;60.85;99548.97;5054122;28;20476;-59
2022/04/28 06:46:14;;;;;;;8.32;5.07;;;;;;;12.84;51.94;99551.19;5054607;28;20041;-58
2022/04/28 06:49:17;;;;;;;9.50;4.70;;;;;;;14.21;53.95;99553.44;5041883;28;20440;-61
2022/04/28 06:52:14;;;;;;;10.88;5.72;;;;;;;13.62;49.46;99551.34;5053258;28;20083;-58
2022/04/28 06:55:05;;;;;;;13.38;5.32;;;;;;;13.30;50.83;99556.97;5053282;28;20048;-58
2022/04/28 06:57:53;;;;;;;8.57;5.22;;;;;;;12.43;52.90;99560.81;5033247;28;20032;-58
2022/04/28 07:00:48;;;;;;;10.45;5.50;;;;;;;13.29;53.55;99552.63;5033687;28;20049;-57
2022/04/28 07:03:32;;;;;;;9.10;5.13;;;;;;;12.87;53.88;99552.78;5047795;28;20069;-61
2022/04/28 07:06:18;;;;;;;9.32;5.30;;;;;;;12.26;52.81;99546.97;5033719;28;20037;-62
2022/04/28 07:09:03;;;;;;;9.55;5.47;;;;;;;12.04;53.49;99552.69;5047638;28;20033;-59
2022/04/28 07:11:48;;;;;;;9.13;5.32;;;;;;;12.59;51.43;99554.56;5061804;28;20037;-62
2022/04/28 07:15:02;;;;;;;10.27;5.30;;;;;;;12.76;51.11;99549.06;5019050;28;20053;-61
2022/04/28 07:18:11;;;;;;;11.65;5.80;;;;;;;12.69;51.13;99555.66;5033044;28;20060;-61
2022/04/28 07:21:00;;;;;;;9.30;5.63;;;;;;;12.97;50.75;99563.53;5033344;28;20104;-60
2022/04/28 07:23:46;;;;;;;10.45;5.25;;;;;;;13.17;50.39;99554.34;5033562;28;20076;-60
2022/04/28 07:26:33;;;;;;;8.48;5.03;;;;;;;13.74;49.12;99573.31;5019622;28;20029;-60
2022/04/28 07:29:17;;;;;;;11.27;5.72;;;;;;;13.30;49.34;99554.34;5047635;28;20052;-62
2022/04/28 07:32:25;;;;;;;7.80;4.80;;;;;;;13.53;49.23;99579.13;5014767;28;20172;-61
2022/04/28 07:35:30;;;;;;;9.73;5.63;;;;;;;13.54;49.31;99574.69;5033372;28;20037;-59
2022/04/28 07:38:33;;;;;;;9.50;5.18;;;;;;;13.77;48.55;99578.38;5032426;28;20380;-59
2022/04/28 07:41:25;;;;;;;9.10;4.78;;;;;;;13.92;48.06;99583.56;5059034;28;20037;-60
2022/04/28 07:44:10;;;;;;;10.63;4.97;;;;;;;14.81;46.35;99576.44;5052864;28;20033;-58
2022/04/28 07:46:56;;;;;;;8.93;5.03;;;;;;;14.62;47.40;99583.06;5049685;28;20499;-59
2022/04/28 07:49:43;;;;;;;8.75;4.95;;;;;;;14.93;45.27;99590.53;5052178;28;20045;-59
2022/04/28 07:52:30;;;;;;;8.57;4.70;;;;;;;15.20;44.68;99574.44;5038046;28;20033;-60
2022/04/28 07:55:15;;;;;;;8.57;4.65;;;;;;;15.07;45.33;99590.34;5038280;28;20037;-58
2022/04/28 07:57:59;;;;;;;7.60;4.07;;;;;;;15.03;45.24;99592.38;5053190;28;20049;-56
2022/04/28 08:01:09;;;;;;;7.55;5.00;;;;;;;14.66;47.03;99576.59;5052144;28;20041;-57
2022/04/28 08:03:55;;;;;;;10.35;4.35;;;;;;;16.24;45.99;99576.25;5080489;28;20044;-59
2022/04/28 08:06:40;;;;;;;8.93;4.60;;;;;;;16.95;43.68;99579.41;5051706;28;20048;-61
2022/04/28 08:09:25;;;;;;;6.70;4.25;;;;;;;16.97;44.50;99576.66;5065505;28;20127;-59
2022/04/28 08:12:10;;;;;;;7.57;4.20;;;;;;;17.09;41.18;99566.84;5051587;28;20056;-56
2022/04/28 08:14:55;;;;;;;6.97;4.32;;;;;;;16.78;40.01;99582.63;5065674;28;20037;-56
2022/04/28 08:17:40;;;;;;;7.03;4.03;;;;;;;16.43;40.38;99581.84;5065782;28;20040;-57
2022/04/28 08:20:24;;;;;;;6.78;3.97;;;;;;;16.57;40.27;99586.03;5064691;28;20449;-56
2022/04/28 08:23:10;;;;;;;7.82;4.00;;;;;;;17.39;38.58;99599.69;5065742;28;20207;-56
2022/04/28 08:25:55;;;;;;;6.47;3.70;;;;;;;17.48;38.82;99596.25;5050414;28;20071;-58
2022/04/28 08:28:40;;;;;;;9.63;4.00;;;;;;;18.29;37.49;99587.72;5064017;28;20045;-57
2022/04/28 08:31:26;;;;;;;7.28;4.10;;;;;;;17.47;38.72;99594.59;5064522;28;20037;-58
2022/04/28 08:34:14;;;;;;;5.85;3.60;;;;;;;18.12;41.42;99592.69;5034974;28;20041;-57
2022/04/28 08:36:59;;;;;;;7.75;4.00;;;;;;;17.29;37.56;99588.19;5035763;28;20041;-62
2022/04/28 08:39:45;;;;;;;4.43;3.58;;;;;;;18.20;36.65;99608.75;5070204;28;20095;-58
2022/04/28 08:42:31;;;;;;;6.82;3.83;;;;;;;18.70;35.61;99600.94;5036838;28;20111;-57
2022/04/28 08:45:32;;;;;;;7.38;3.50;;;;;;;17.79;44.89;99597.28;5078743;28;20053;-61
2022/04/28 08:48:53;;;;;;;5.82;3.50;;;;;;;18.63;34.66;99602.44;5049058;28;20119;-58
2022/04/28 08:51:43;;;;;;;5.97;3.80;;;;;;;18.88;34.90;99603.75;5059021;28;20476;-57
2022/04/28 08:54:31;;;;;;;5.93;4.07;;;;;;;19.45;34.28;99589.72;5048660;28;20037;-58
2022/04/28 08:57:16;;;;;;;4.97;3.15;;;;;;;19.43;34.03;99590.84;5050635;28;20051;-58
2022/04/28 09:00:01;;;;;;;5.18;2.72;;;;;;;17.93;34.47;99594.25;5034997;28;20064;-55
2022/04/28 09:02:50;;;;;;;5.72;2.40;;;;;;;19.52;31.52;99587.34;5013545;28;20049;-54
2022/04/28 09:05:48;;;;;;;5.20;2.97;;;;;;;18.60;31.33;99600.91;5040200;28;20067;-56
2022/04/28 09:08:52;;;;;;;3.65;2.40;;;;;;;20.04;30.15;99593.22;5050968;28;20045;-59
2022/04/28 09:12:03;;;;;;;5.05;2.50;;;;;;;20.62;28.55;99596.53;5052445;28;20434;-58
2022/04/28 09:15:10;;;;;;;;;;;;;;;19.62;31.29;99587.31;5052043;28;20155;-57
2022/04/28 09:17:56;;;;;;;4.47;2.58;;;;;;;18.72;30.31;99601.59;5051352;28;19917;-54
2022/04/28 09:20:44;;;;;;;5.35;2.45;;;;;;;18.66;29.84;99588.91;5051749;28;20388;-53
2022/04/28 09:23:30;;;;;;;4.32;2.10;;;;;;;20.24;28.60;99588.63;5043670;28;20396;-55
2022/04/28 09:26:16;;;;;;;4.43;2.30;;;;;;;19.70;28.76;99584.78;5053073;28;20059;-58
2022/04/28 09:29:03;;;;;;;4.82;1.80;;;;;;;19.95;27.41;99581.59;5051935;28;20063;-57
2022/04/28 09:31:51;;;;;;;2.75;1.80;;;;;;;20.11;26.37;99582.84;5082630;28;20071;-55
2022/04/28 09:35:06;;;;;;;2.70;1.60;;;;;;;20.92;26.12;99573.19;5052636;28;20037;-58
2022/04/28 09:38:12;;;;;;;2.92;1.88;;;;;;;21.13;25.03;99579.22;5035593;28;20053;-57
2022/04/28 09:44:01;;;;;;;3.10;1.90;;;;;;;22.15;25.37;99580.47;5039140;28;20037;-54
2022/04/28 09:46:47;;;;;;;3.85;2.25;;;;;;;20.75;25.37;99572.19;5064817;28;20456;-55
2022/04/28 09:49:33;;;;;;;4.85;2.30;;;;;;;19.67;26.36;99582.41;5071674;28;20140;-53
2022/04/28 09:52:43;;;;;;;3.83;2.00;;;;;;;20.24;26.02;99562.03;5021627;28;20510;-49
2022/04/28 09:55:34;;;;;;;3.00;1.80;;;;;;;20.01;26.71;99574.88;5033716;28;20045;-53
2022/04/28 09:58:45;;;;;;;2.33;1.70;;;;;;;21.23;26.19;99577.31;5032844;28;20037;-52
2022/04/28 10:01:31;;;;;;;6.20;2.22;;;;;;;21.41;26.12;99577.22;5031547;28;20045;-54
2022/04/28 10:04:17;;;;;;;4.07;2.75;;;;;;;21.34;26.38;99572.69;5017976;28;20041;-51
2022/04/28 10:07:22;;;;;;;5.63;2.30;;;;;;;19.49;28.08;99570.88;5047107;28;20068;-50
2022/04/28 10:10:12;;;;;;;3.17;2.10;;;;;;;19.43;28.48;99572.25;5035508;28;20116;-52
2022/04/28 10:12:59;;;;;;;5.00;2.63;;;;;;;19.23;28.18;99569.63;5035476;28;20041;-54
2022/04/28 10:16:12;;;;;;;4.53;2.47;;;;;;;18.42;28.02;99579.50;5035862;28;20118;-53
2022/04/28 10:19:15;;;;;;;5.10;3.05;;;;;;;19.00;28.53;99580.53;5048798;28;20341;-53
2022/04/28 10:22:07;;;;;;;4.68;2.38;;;;;;;19.56;27.69;99571.94;5034657;28;20527;-54
2022/04/28 10:35:10;;;;;;;3.88;2.50;;;;;;;21.93;25.17;99569.41;5035638;28;20033;-57
2022/04/28 10:38:24;;;;;;;5.35;2.28;;;;;;;22.85;24.05;99578.47;5067749;28;20033;-57
2022/04/28 10:41:10;;;;;;;4.35;2.10;;;;;;;22.52;24.09;99576.56;5046476;28;20043;-56
2022/04/28 10:43:57;;;;;;;3.17;2.33;;;;;;;22.71;23.61;99577.31;5051358;28;20116;-56
2022/04/28 10:47:00;;;;;;;5.55;2.80;;;;;;;22.65;24.84;99567.28;5053524;28;20456;-53
2022/04/28 10:49:52;;;;;;;3.58;2.35;;;;;;;22.57;24.35;99565.41;5054239;28;20041;-56
2022/04/28 10:52:39;;;;;;;5.78;3.10;;;;;;;23.03;23.61;99574.81;5038540;28;20048;-56
2022/04/28 10:55:30;;;;;;;4.47;2.80;;;;;;;21.98;24.72;99553.75;5045795;28;20067;-56
2022/04/28 10:58:22;;;;;;;3.65;2.40;;;;;;;22.71;24.31;99569.31;5055517;28;20391;-57
2022/04/28 11:01:07;;;;;;;4.10;2.30;;;;;;;21.50;25.12;99572.81;5052523;28;20037;-55
2022/04/28 11:03:55;;;;;;;4.30;1.98;;;;;;;20.99;26.13;99588.59;5038644;28;20052;-55
2022/04/28 11:06:50;;;;;;;3.50;2.13;;;;;;;22.45;25.45;99580.06;5054957;28;20057;-56
2022/04/28 11:09:40;;;;;;;4.68;2.40;;;;;;;23.57;26.03;99578.78;5052919;28;20532;-53
2022/04/28 11:12:33;;;;;;;3.67;2.28;;;;;;;23.70;24.86;99566.72;5054837;28;20047;-55
2022/04/28 11:15:18;;;;;;;3.20;1.77;;;;;;;24.69;21.95;99569.94;5053620;28;20045;-57
2022/04/28 11:18:02;;;;;;;3.63;2.30;;;;;;;23.97;23.21;99568.16;5052003;28;20041;-58
2022/04/28 11:20:47;;;;;;;4.88;2.35;;;;;;;23.18;24.86;99574.13;5054810;28;20060;-57
2022/04/28 11:23:40;;;;;;;4.25;2.35;;;;;;;24.08;24.15;99574.09;5053329;28;20114;-57
2022/04/28 11:26:37;;;;;;;3.13;2.25;;;;;;;24.27;22.51;99569.38;5039543;28;20535;-55
2022/04/28 11:29:43;;;;;;;3.92;2.13;;;;;;;22.08;23.59;99576.78;5053972;28;20053;-57
2022/04/28 11:32:28;;;;;;;3.90;2.05;;;;;;;22.00;24.30;99585.59;5043856;28;20480;-56
2022/04/28 11:35:13;;;;;;;3.50;1.98;;;;;;;22.92;23.26;99589.34;5054337;28;20444;-56
2022/04/28 11:37:58;;;;;;;3.72;1.90;;;;;;;24.19;23.32;99570.22;5039355;28;20041;-54
2022/04/28 11:40:44;;;;;;;4.53;1.77;;;;;;;23.35;22.95;99577.63;5039417;28;20039;-57
2022/04/28 11:43:31;;;;;;;4.28;1.85;;;;;;;21.95;24.96;99577.25;5054256;28;20116;-55
2022/04/28 11:46:18;;;;;;;3.72;1.90;;;;;;;21.80;25.07;99572.50;5054062;28;20039;-56
2022/04/28 11:49:02;;;;;;;4.60;1.80;;;;;;;22.47;25.03;99578.91;5053268;28;20048;-53
2022/04/28 11:51:47;;;;;;;4.05;2.05;;;;;;;20.83;25.32;99575.91;5036718;28;20029;-56
2022/04/28 11:54:32;;;;;;;4.13;2.00;;;;;;;21.26;25.35;99578.81;5067071;28;20040;-52
2022/04/28 11:57:18;;;;;;;4.07;1.73;;;;;;;22.11;23.79;99585.31;5054060;28;20063;-56
2022/04/28 12:00:06;;;;;;;3.33;1.88;;;;;;;22.36;23.23;99577.38;5053590;28;20064;-55
2022/04/28 12:02:56;;;;;;;2.97;1.92;;;;;;;23.60;21.95;99573.09;5048093;28;20074;-55
2022/04/28 12:05:42;;;;;;;3.60;2.03;;;;;;;23.18;23.45;99585.66;5054071;28;20040;-55
2022/04/28 12:08:27;;;;;;;4.32;2.17;;;;;;;21.02;25.04;99565.13;5050295;28;20033;-55
2022/04/28 12:14:22;;;;;;;2.78;1.90;;;;;;;24.10;21.52;99572.94;5051583;28;20033;-56
2022/04/28 12:20:10;;;;;;;4.75;1.70;;;;;;;22.31;22.96;99568.19;5051566;28;20048;-55
2022/04/28 12:22:55;;;;;;;3.38;1.80;;;;;;;21.31;24.47;99571.19;5050324;28;20143;-56
2022/04/28 12:25:40;;;;;;;6.32;2.30;;;;;;;20.84;24.76;99565.09;5052753;28;20121;-53
2022/04/28 12:28:32;;;;;;;3.33;1.60;;;;;;;20.67;25.24;99583.63;5051106;28;20476;-54
2022/04/28 12:31:29;;;;;;;5.25;2.30;;;;;;;20.65;25.35;99574.94;5061221;28;20037;-52
2022/04/28 12:34:17;;;;;;;2.83;1.80;;;;;;;20.26;25.52;99565.38;5052163;28;20041;-53
2022/04/28 12:37:01;;;;;;;2.50;1.67;;;;;;;19.74;27.01;99576.50;5036782;28;20045;-54
2022/04/28 12:39:57;;;;;;;3.30;1.52;;;;;;;19.97;27.25;99576.13;5058971;28;20190;-51
2022/04/28 12:42:48;;;;;;;4.88;2.20;;;;;;;20.80;27.79;99575.25;5051177;28;20044;-56
2022/04/28 12:45:35;;;;;;;2.60;1.70;;;;;;;19.54;27.22;99568.59;5073149;28;20116;-54
2022/04/28 12:48:25;;;;;;;3.50;1.88;;;;;;;19.77;27.00;99574.41;5051378;28;20476;-55
2022/04/28 12:51:13;;;;;;;4.50;2.25;;;;;;;18.87;27.95;99575.50;5051898;28;20040;-55
2022/04/28 12:54:16;;;;;;;3.70;2.15;;;;;;;18.88;27.72;99574.53;5052711;28;20057;-54
2022/04/28 12:57:05;;;;;;;3.65;2.00;;;;;;;17.81;29.16;99568.81;5044367;28;20061;-54
2022/04/28 12:59:50;;;;;;;4.13;2.25;;;;;;;17.77;29.22;99568.25;5031489;28;20044;-56
2022/04/28 13:02:35;;;;;;;5.45;1.73;;;;;;;20.25;27.36;99563.72;5033377;28;20045;-54
2022/04/28 13:05:20;;;;;;;2.97;1.80;;;;;;;21.12;27.18;99569.56;5032583;28;20048;-56
2022/04/28 13:08:07;;;;;;;3.85;2.17;;;;;;;20.30;27.43;99561.44;5032893;28;20052;-56
2022/04/28 13:10:53;;;;;;;3.92;2.28;;;;;;;18.81;29.81;99584.03;5032039;28;20095;-57
2022/04/28 13:13:38;;;;;;;6.35;2.33;;;;;;;18.69;29.91;99580.66;5032869;28;20185;-57
2022/04/28 13:16:24;;;;;;;6.03;2.20;;;;;;;18.94;30.24;99570.47;5045762;28;20472;-55
2022/04/28 13:19:10;;;;;;;3.67;2.08;;;;;;;19.24;30.46;99578.47;5031970;28;20107;-55
2022/04/28 13:21:55;;;;;;;3.17;2.22;;;;;;;19.20;30.27;99583.19;5031969;28;20103;-54
2022/04/28 13:24:39;;;;;;;4.82;2.53;;;;;;;18.76;29.90;99584.44;5032884;28;20069;-56
2022/04/28 13:27:25;;;;;;;4.28;2.53;;;;;;;18.58;30.91;99582.47;5032647;28;20087;-55
2022/04/28 13:30:11;;;;;;;4.20;2.50;;;;;;;19.13;29.77;99576.78;5045582;28;20496;-54
2022/04/28 13:32:55;;;;;;;5.38;2.53;;;;;;;18.44;33.46;99581.03;5031582;28;20055;-55
2022/04/28 13:35:41;;;;;;;3.83;2.42;;;;;;;18.68;31.07;99582.50;5032600;28;20061;-56
2022/04/28 13:38:25;;;;;;;4.28;2.30;;;;;;;18.50;31.19;99578.81;5032980;28;20092;-56
2022/04/28 13:41:11;;;;;;;4.63;2.30;;;;;;;18.02;32.11;99579.34;5068604;28;20037;-55
2022/04/28 13:43:56;;;;;;;4.60;2.38;;;;;;;17.75;32.50;99585.25;5052386;28;20048;-55
2022/04/28 13:46:41;;;;;;;5.70;2.03;;;;;;;18.29;32.62;99582.41;5052128;28;20036;-54
2022/04/28 13:49:26;;;;;;;4.35;2.33;;;;;;;18.45;31.20;99585.38;5037839;28;20430;-56
2022/04/28 13:52:11;;;;;;;4.05;2.60;;;;;;;18.51;30.78;99584.00;5051481;28;20049;-57
2022/04/28 13:54:56;;;;;;;3.72;2.42;;;;;;;18.69;30.38;99580.66;5051507;28;20048;-57
2022/04/28 13:57:40;;;;;;;4.22;2.22;;;;;;;18.52;30.93;99583.03;5051481;28;20507;-57
2022/04/28 14:00:25;;;;;;;4.00;2.22;;;;;;;18.21;31.79;99583.09;5051380;28;20033;-56
2022/04/28 14:03:10;;;;;;;3.08;2.58;;;;;;;18.65;31.60;99581.91;5052556;28;20055;-56
2022/04/28 14:05:56;;;;;;;5.18;2.50;;;;;;;19.52;30.18;99570.56;5052438;28;20491;-57